createdAt,value
2022-11-03T00:00:12.933Z,98909.22
2022-11-03T00:02:39.635Z,98905.69
2022-11-03T00:05:26.283Z,98920.84
2022-11-03T00:07:52.686Z,98917.44
2022-11-03T00:10:19.099Z,98914.16
2022-11-03T00:12:45.494Z,98915.50
2022-11-03T00:15:11.905Z,98923.19
2022-11-03T00:17:38.304Z,98917.00
2022-11-03T00:20:05.117Z,98915.94
2022-11-03T00:22:33.206Z,98916.19
2022-11-03T00:24:59.867Z,98914.31
2022-11-03T00:27:26.273Z,98910.06
2022-11-03T00:29:52.660Z,98909.47
2022-11-03T00:32:19.079Z,98909.97
2022-11-03T00:34:45.487Z,98919.22
2022-11-03T00:37:11.879Z,98909.69
2022-11-03T00:39:38.279Z,98920.13
2022-11-03T00:42:04.750Z,98908.59
2022-11-03T00:44:31.258Z,98905.22
2022-11-03T00:46:57.649Z,98902.53
2022-11-03T00:49:24.078Z,98898.97
2022-11-03T00:51:50.484Z,98912.09
2022-11-03T00:54:16.923Z,98897.53
2022-11-03T00:56:44.341Z,98893.59
2022-11-03T00:59:10.810Z,98897.47
2022-11-03T01:01:46.811Z,98896.44
2022-11-03T01:04:34.668Z,98886.75
2022-11-03T01:07:02.342Z,98889.94
2022-11-03T01:09:35.301Z,98891.38
2022-11-03T01:12:01.692Z,98890.09
2022-11-03T01:14:33.156Z,98889.34
2022-11-03T01:17:00.215Z,98887.47
2022-11-03T01:19:26.806Z,98890.50
2022-11-03T01:21:53.986Z,98884.41
2022-11-03T01:24:20.694Z,98884.94
2022-11-03T01:26:47.129Z,98882.84
2022-11-03T01:29:13.846Z,98872.59
2022-11-03T01:31:41.071Z,98868.84
2022-11-03T01:34:08.890Z,98870.84
2022-11-03T01:36:35.345Z,98864.56
2022-11-03T01:39:01.771Z,98861.72
2022-11-03T01:41:28.708Z,98849.59
2022-11-03T01:44:25.692Z,98848.63
2022-11-03T01:47:15.112Z,98854.88
2022-11-03T01:49:50.008Z,98842.75
2022-11-03T01:52:41.275Z,98838.94
2022-11-03T01:55:13.582Z,98835.81
2022-11-03T01:57:46.809Z,98839.09
2022-11-03T02:00:13.898Z,98827.03
2022-11-03T02:02:41.738Z,98825.91
2022-11-03T02:05:10.583Z,98825.25
2022-11-03T02:07:42.064Z,98824.19
2022-11-03T02:10:09.307Z,98819.94
2022-11-03T02:12:37.457Z,98802.69
2022-11-03T02:15:13.705Z,98802.16
2022-11-03T02:17:42.397Z,98795.63
2022-11-03T02:20:20.463Z,98794.00
2022-11-03T02:23:10.018Z,98798.94
2022-11-03T02:25:45.649Z,98795.81
2022-11-03T02:28:15.038Z,98790.81
2022-11-03T02:31:00.130Z,98784.13
2022-11-03T02:33:48.406Z,98792.13
2022-11-03T02:36:44.518Z,98785.88
2022-11-03T02:39:25.132Z,98779.72
2022-11-03T02:41:54.579Z,98780.66
2022-11-03T02:44:21.095Z,98761.69
2022-11-03T02:46:52.047Z,98759.00
2022-11-03T02:49:18.625Z,98762.34
2022-11-03T02:51:45.014Z,98764.09
2022-11-03T02:54:26.030Z,98750.59
2022-11-03T02:57:06.090Z,98749.03
2022-11-03T02:59:42.975Z,98747.09
2022-11-03T03:02:13.578Z,98736.91
2022-11-03T03:04:50.315Z,98736.78
2022-11-03T03:07:22.275Z,98730.88
2022-11-03T03:10:02.817Z,98720.63
2022-11-03T03:12:34.499Z,98719.56
2022-11-03T03:15:03.799Z,98704.75
2022-11-03T03:17:35.662Z,98703.94
2022-11-03T03:20:13.544Z,98701.50
2022-11-03T03:23:00.171Z,98702.16
2022-11-03T03:25:34.614Z,98692.78
2022-11-03T03:28:06.241Z,98676.00
2022-11-03T03:30:36.158Z,98676.63
2022-11-03T03:33:05.889Z,98657.97
2022-11-03T03:35:34.827Z,98678.66
2022-11-03T03:38:06.139Z,98677.44
2022-11-03T03:40:36.507Z,98669.22
2022-11-03T03:43:06.551Z,98670.19
2022-11-03T03:45:35.024Z,98666.97
2022-11-03T03:48:02.655Z,98666.81
2022-11-03T03:50:33.347Z,98667.50
2022-11-03T03:53:05.298Z,98668.75
2022-11-03T03:55:40.605Z,98656.88
2022-11-03T03:58:08.174Z,98650.09
2022-11-03T04:00:34.905Z,98649.34
2022-11-03T04:03:01.420Z,98642.97
2022-11-03T04:05:27.846Z,98642.78
2022-11-03T04:07:54.290Z,98638.34
2022-11-03T04:10:22.857Z,98644.88
2022-11-03T04:13:08.676Z,98641.00
2022-11-03T04:15:54.037Z,98636.81
2022-11-03T04:18:40.348Z,98625.75
2022-11-03T04:21:47.024Z,98630.44
2022-11-03T04:24:13.478Z,98632.22
2022-11-03T04:26:40.571Z,98625.09
2022-11-03T04:29:09.882Z,98631.91
2022-11-03T04:31:37.051Z,98620.25
2022-11-03T04:34:10.178Z,98623.75
2022-11-03T04:36:36.593Z,98626.56
2022-11-03T04:39:15.622Z,98630.88
2022-11-03T04:41:42.261Z,98620.66
2022-11-03T04:44:16.006Z,98614.94
2022-11-03T04:46:44.150Z,98614.47
2022-11-03T04:49:14.983Z,98618.19
2022-11-03T04:51:41.594Z,98608.16
2022-11-03T04:54:18.553Z,98604.28
2022-11-03T04:56:44.971Z,98595.44
2022-11-03T04:59:13.191Z,98598.25
2022-11-03T05:01:40.186Z,98598.13
2022-11-03T05:04:16.354Z,98597.19
2022-11-03T05:06:51.046Z,98592.31
2022-11-03T05:09:26.652Z,98585.56
2022-11-03T05:11:53.131Z,98596.75
2022-11-03T05:14:25.807Z,98594.53
2022-11-03T05:16:56.658Z,98595.78
2022-11-03T05:19:31.397Z,98582.78
2022-11-03T05:22:00.149Z,98584.88
2022-11-03T05:24:26.909Z,98582.41
2022-11-03T05:26:58.264Z,98582.66
2022-11-03T05:29:30.439Z,98577.16
2022-11-03T05:31:57.143Z,98560.41
2022-11-03T05:34:35.566Z,98562.78
2022-11-03T05:37:26.838Z,98564.81
2022-11-03T05:39:57.759Z,98555.34
2022-11-03T05:42:36.552Z,98548.59
2022-11-03T05:45:15.769Z,98546.47
2022-11-03T05:47:42.609Z,98549.28
2022-11-03T05:50:22.664Z,98544.28
2022-11-03T05:52:54.038Z,98539.16
2022-11-03T05:55:37.137Z,98539.97
2022-11-03T05:58:28.991Z,98538.47
2022-11-03T06:00:57.572Z,98537.88
2022-11-03T06:03:27.978Z,98525.09
2022-11-03T06:05:55.710Z,98517.97
2022-11-03T06:08:25.940Z,98517.31
2022-11-03T06:10:58.257Z,98508.53
2022-11-03T06:13:33.086Z,98508.16
2022-11-03T06:16:06.810Z,98508.16
2022-11-03T06:18:36.396Z,98507.44
2022-11-03T06:21:08.306Z,98500.69
2022-11-03T06:23:36.215Z,98503.97
2022-11-03T06:26:04.097Z,98505.25
2022-11-03T06:28:34.861Z,98495.47
2022-11-03T06:31:01.326Z,98484.44
2022-11-03T06:33:30.437Z,98491.63
2022-11-03T06:36:03.546Z,98484.16
2022-11-03T06:38:33.682Z,98482.38
2022-11-03T06:41:00.120Z,98483.38
2022-11-03T06:43:36.178Z,98486.53
2022-11-03T06:46:12.834Z,98480.25
2022-11-03T06:48:39.827Z,98480.84
2022-11-03T06:51:18.891Z,98492.72
2022-11-03T06:53:45.943Z,98490.84
2022-11-03T06:56:19.043Z,98477.72
2022-11-03T06:58:48.850Z,98479.00
2022-11-03T07:01:18.651Z,98486.38
2022-11-03T07:03:46.262Z,98480.06
2022-11-03T07:06:27.219Z,98482.97
2022-11-03T07:08:59.012Z,98473.31
2022-11-03T07:11:40.247Z,98482.63
2022-11-03T07:14:21.276Z,98482.16
2022-11-03T07:17:05.635Z,98490.69
2022-11-03T07:19:39.573Z,98471.66
2022-11-03T07:22:15.049Z,98477.72
2022-11-03T07:24:44.399Z,98484.72
2022-11-03T07:27:10.878Z,98475.25
2022-11-03T07:29:37.272Z,98467.88
2022-11-03T07:32:12.787Z,98474.31
2022-11-03T07:34:39.312Z,98472.53
2022-11-03T07:37:05.840Z,98475.41
2022-11-03T07:39:37.391Z,98469.19
2022-11-03T07:42:14.368Z,98466.41
2022-11-03T07:44:40.924Z,98469.28
2022-11-03T07:47:13.496Z,98462.13
2022-11-03T07:49:40.737Z,98462.78
2022-11-03T07:52:11.868Z,98473.06
2022-11-03T07:54:38.317Z,98465.59
2022-11-03T07:57:13.454Z,98465.09
2022-11-03T07:59:45.472Z,98460.25
2022-11-03T08:02:34.902Z,98463.28
2022-11-03T08:05:01.649Z,98460.09
2022-11-03T08:07:28.462Z,98449.22
2022-11-03T08:09:55.396Z,98455.59
2022-11-03T08:12:22.298Z,98451.66
2022-11-03T08:14:48.990Z,98448.84
2022-11-03T08:17:15.654Z,98451.94
2022-11-03T08:19:42.451Z,98440.53
2022-11-03T08:22:09.179Z,98443.97
2022-11-03T08:24:35.587Z,98434.00
2022-11-03T08:27:03.488Z,98431.28
2022-11-03T08:29:31.204Z,98426.66
2022-11-03T08:31:58.076Z,98427.06
2022-11-03T08:34:24.638Z,98421.88
2022-11-03T08:36:51.024Z,98400.03
2022-11-03T08:39:17.946Z,98416.94
2022-11-03T08:41:44.513Z,98394.81
2022-11-03T08:44:10.923Z,98409.06
2022-11-03T08:46:37.563Z,98403.88
2022-11-03T08:49:03.959Z,98398.44
2022-11-03T08:51:30.371Z,98400.63
2022-11-03T08:53:56.786Z,98399.78
2022-11-03T08:56:23.199Z,98382.44
2022-11-03T08:58:50.214Z,98383.66
2022-11-03T09:01:16.786Z,98374.25
2022-11-03T09:03:43.454Z,98385.59
2022-11-03T09:06:10.398Z,98385.50
2022-11-03T09:11:23.364Z,98372.75
2022-11-03T09:13:49.742Z,98372.97
2022-11-03T09:16:17.154Z,98361.66
2022-11-03T09:18:43.710Z,98362.31
2022-11-03T09:21:10.084Z,98350.53
2022-11-03T09:23:36.511Z,98354.47
2022-11-03T09:26:03.033Z,98351.63
2022-11-03T09:28:29.418Z,98346.16
2022-11-03T09:30:55.831Z,98338.34
2022-11-03T09:33:22.245Z,98337.25
2022-11-03T09:35:48.794Z,98318.88
2022-11-03T09:38:15.282Z,98324.97
2022-11-03T09:40:41.766Z,98327.47
2022-11-03T09:43:08.807Z,98333.28
2022-11-03T09:45:35.503Z,98336.56
2022-11-03T09:48:02.341Z,98341.72
2022-11-03T09:50:28.789Z,98326.50
2022-11-03T09:52:56.607Z,98315.75
2022-11-03T09:55:27.165Z,98322.78
2022-11-03T09:57:59.587Z,98313.31
2022-11-03T10:00:27.267Z,98312.28
2022-11-03T10:02:54.555Z,98291.25
2022-11-03T10:05:25.493Z,98298.00
2022-11-03T10:08:11.311Z,98282.03
2022-11-03T10:10:43.161Z,98285.84
2022-11-03T10:13:15.347Z,98266.38
2022-11-03T10:15:42.207Z,98261.53
2022-11-03T10:18:10.230Z,98258.00
2022-11-03T10:20:36.713Z,98236.69
2022-11-03T10:23:03.171Z,98229.13
2022-11-03T10:25:32.273Z,98216.66
2022-11-03T10:28:28.104Z,98214.50
2022-11-03T10:31:11.951Z,98206.94
2022-11-03T10:33:41.868Z,98210.41
2022-11-03T10:36:17.668Z,98199.34
2022-11-03T10:38:44.997Z,98193.69
2022-11-03T10:41:23.051Z,98191.81
2022-11-03T10:44:10.787Z,98187.25
2022-11-03T10:46:50.814Z,98178.88
2022-11-03T10:49:19.544Z,98189.16
2022-11-03T10:51:49.537Z,98186.16
2022-11-03T10:54:17.721Z,98182.13
2022-11-03T10:56:46.008Z,98171.59
2022-11-03T10:59:25.085Z,98166.72
2022-11-03T11:01:51.866Z,98165.66
2022-11-03T11:04:21.081Z,98161.59
2022-11-03T11:06:47.945Z,98148.91
2022-11-03T11:09:21.605Z,98142.97
2022-11-03T11:12:14.807Z,98137.56
2022-11-03T11:14:58.877Z,98138.91
2022-11-03T11:17:38.449Z,98115.16
2022-11-03T11:20:21.439Z,98111.09
2022-11-03T11:22:49.424Z,98104.38
2022-11-03T11:25:18.587Z,98111.41
2022-11-03T11:27:44.930Z,98097.06
2022-11-03T11:30:20.715Z,98086.56
2022-11-03T11:32:49.779Z,98079.81
2022-11-03T11:35:37.986Z,98081.16
2022-11-03T11:38:41.938Z,98073.88
2022-11-03T11:41:08.696Z,98066.06
2022-11-03T11:43:35.168Z,98060.38
2022-11-03T11:46:23.459Z,98053.63
2022-11-03T11:48:57.517Z,98047.16
2022-11-03T11:51:24.968Z,98048.53
2022-11-03T11:54:16.276Z,98036.38
2022-11-03T11:56:43.854Z,98040.44
2022-11-03T11:59:25.620Z,98036.09
2022-11-03T12:01:55.611Z,98024.75
2022-11-03T12:04:25.551Z,98022.31
2022-11-03T12:06:52.089Z,98016.41
2022-11-03T12:09:20.742Z,98022.34
2022-11-03T12:11:50.246Z,98019.09
2022-11-03T12:14:38.689Z,98001.31
2022-11-03T12:17:14.437Z,97995.34
2022-11-03T12:19:44.794Z,97984.00
2022-11-03T12:22:12.371Z,97975.41
2022-11-03T12:24:52.750Z,97973.22
2022-11-03T12:27:40.924Z,97957.88
2022-11-03T12:30:18.864Z,97955.44
2022-11-03T12:32:46.405Z,97951.41
2022-11-03T12:35:13.657Z,97930.88
2022-11-03T12:37:41.062Z,97924.41
2022-11-03T12:40:08.045Z,97923.34
2022-11-03T12:42:35.318Z,97923.06
2022-11-03T12:45:01.854Z,97913.09
2022-11-03T12:47:28.290Z,97904.97
2022-11-03T12:49:54.796Z,97901.19
2022-11-03T12:52:21.174Z,97886.88
2022-11-03T12:54:47.579Z,97877.69
2022-11-03T12:57:14.037Z,97866.88
2022-11-03T12:59:40.661Z,97854.72
2022-11-03T13:02:09.274Z,97861.16
2022-11-03T13:04:35.715Z,97842.81
2022-11-03T13:07:02.109Z,97839.53
2022-11-03T13:09:28.518Z,97838.16
2022-11-03T13:12:13.316Z,97837.59
2022-11-03T13:14:42.086Z,97847.31
2022-11-03T13:17:10.953Z,97843.25
2022-11-03T13:19:37.376Z,97828.19
2022-11-03T13:22:03.794Z,97831.13
2022-11-03T13:24:30.240Z,97822.22
2022-11-03T13:26:56.812Z,97808.19
2022-11-03T13:29:23.200Z,97809.47
2022-11-03T13:31:49.608Z,97794.91
2022-11-03T13:34:16.055Z,97792.72
2022-11-03T13:36:42.520Z,97786.81
2022-11-03T13:39:08.914Z,97790.00
2022-11-03T13:41:35.309Z,97780.88
2022-11-03T13:44:01.715Z,97775.22
2022-11-03T13:46:28.318Z,97766.88
2022-11-03T13:51:41.513Z,97769.38
2022-11-03T13:59:40.827Z,97759.81
2022-11-03T14:04:53.587Z,97753.72
2022-11-03T14:07:20.043Z,97749.94
2022-11-03T14:09:46.948Z,97753.19
2022-11-03T14:12:31.467Z,97739.16
2022-11-03T14:15:04.049Z,97739.22
2022-11-03T14:17:31.157Z,97737.84
2022-11-03T14:20:01.029Z,97727.34
2022-11-03T14:22:30.781Z,97723.06
2022-11-03T14:24:57.197Z,97716.56
2022-11-03T14:27:23.638Z,97704.19
2022-11-03T14:29:50.225Z,97714.16
2022-11-03T14:32:17.700Z,97705.28
2022-11-03T14:34:44.519Z,97696.09
2022-11-03T14:37:12.407Z,97690.47
2022-11-03T14:39:39.444Z,97675.88
2022-11-03T14:42:09.614Z,97668.09
2022-11-03T14:44:38.355Z,97666.25
2022-11-03T14:47:10.539Z,97673.56
2022-11-03T14:49:37.242Z,97669.25
2022-11-03T14:52:06.076Z,97663.88
2022-11-03T14:54:33.408Z,97652.06
2022-11-03T14:56:59.897Z,97647.47
2022-11-03T14:59:26.433Z,97670.41
2022-11-03T15:01:54.289Z,97665.00
2022-11-03T15:04:21.808Z,97660.97
2022-11-03T15:06:48.587Z,97661.28
2022-11-03T15:09:15.506Z,97655.88
2022-11-03T15:11:45.425Z,97641.59
2022-11-03T15:14:12.486Z,97636.22
2022-11-03T15:16:39.682Z,97628.16
2022-11-03T15:19:07.407Z,97610.66
2022-11-03T15:21:34.122Z,97617.09
2022-11-03T15:26:47.538Z,97619.47
2022-11-03T15:29:14.351Z,97615.16
2022-11-03T15:31:46.175Z,97615.69
2022-11-03T15:34:13.815Z,97621.31
2022-11-03T15:36:40.273Z,97621.06
2022-11-03T15:39:06.665Z,97623.47
2022-11-03T15:41:33.116Z,97619.19
2022-11-03T15:43:59.527Z,97626.75
2022-11-03T15:46:26.073Z,97625.16
2022-11-03T15:48:54.567Z,97624.38
2022-11-03T15:51:21.105Z,97630.84
2022-11-03T15:53:47.619Z,97617.63
2022-11-03T15:56:14.016Z,97619.53
2022-11-03T15:58:40.955Z,97617.09
2022-11-03T16:01:07.584Z,97618.69
2022-11-03T16:03:34.159Z,97603.63
2022-11-03T16:06:00.622Z,97604.97
2022-11-03T16:08:27.134Z,97612.78
2022-11-03T16:10:57.946Z,97608.50
2022-11-03T16:13:25.397Z,97609.00
2022-11-03T16:15:53.104Z,97601.72
2022-11-03T16:18:19.561Z,97602.00
2022-11-03T16:20:45.970Z,97584.75
2022-11-03T16:23:12.423Z,97585.31
2022-11-03T16:25:38.949Z,97563.47
2022-11-03T16:28:05.726Z,97597.38
2022-11-03T16:30:33.527Z,97592.84
2022-11-03T16:32:59.957Z,97590.69
2022-11-03T16:35:26.450Z,97572.38
2022-11-03T16:37:52.904Z,97570.19
2022-11-03T16:40:20.173Z,97562.66
2022-11-03T16:42:47.463Z,97553.78
2022-11-03T16:45:18.491Z,97545.72
2022-11-03T16:47:46.150Z,97550.84
2022-11-03T16:50:13.408Z,97554.06
2022-11-03T16:52:39.860Z,97565.41
2022-11-03T16:55:06.742Z,97562.75
2022-11-03T16:57:33.310Z,97562.19
2022-11-03T16:59:59.730Z,97582.66
2022-11-03T17:02:27.946Z,97592.34
2022-11-03T17:04:54.862Z,97604.22
2022-11-03T17:07:21.512Z,97610.19
2022-11-03T17:09:47.960Z,97611.50
2022-11-03T17:12:14.379Z,97599.94
2022-11-03T17:14:40.786Z,97602.59
2022-11-03T17:17:07.226Z,97582.13
2022-11-03T17:19:33.629Z,97585.38
2022-11-03T17:22:00.033Z,97571.91
2022-11-03T17:24:27.026Z,97568.72
2022-11-03T17:26:58.398Z,97574.06
2022-11-03T17:29:46.189Z,97570.56
2022-11-03T17:32:16.837Z,97563.59
2022-11-03T17:34:43.233Z,97557.09
2022-11-03T17:37:09.704Z,97545.25
2022-11-03T17:39:37.965Z,97533.91
2022-11-03T17:42:27.211Z,97544.97
2022-11-03T17:44:56.029Z,97529.34
2022-11-03T17:47:24.357Z,97541.75
2022-11-03T17:49:51.346Z,97536.41
2022-11-03T17:52:25.019Z,97527.78
2022-11-03T17:54:57.282Z,97521.34
2022-11-03T17:57:24.786Z,97520.75
2022-11-03T17:59:53.599Z,97523.72
2022-11-03T18:02:28.757Z,97511.06
2022-11-03T18:05:15.377Z,97529.38
2022-11-03T18:07:45.085Z,97510.53
2022-11-03T18:10:11.518Z,97515.91
2022-11-03T18:13:01.259Z,97505.47
2022-11-03T18:15:30.130Z,97507.84
2022-11-03T18:17:57.015Z,97496.56
2022-11-03T18:20:30.339Z,97503.06
2022-11-03T18:23:00.101Z,97503.56
2022-11-03T18:25:26.498Z,97491.75
2022-11-03T18:27:52.901Z,97492.25
2022-11-03T18:30:19.368Z,97479.88
2022-11-03T18:32:46.173Z,97484.16
2022-11-03T18:35:18.538Z,97484.72
2022-11-03T18:37:45.830Z,97496.81
2022-11-03T18:40:13.722Z,97492.00
2022-11-03T18:42:40.451Z,97489.00
2022-11-03T18:45:15.671Z,97480.97
2022-11-03T18:47:42.871Z,97479.91
2022-11-03T18:50:17.475Z,97464.81
2022-11-03T18:52:48.865Z,97461.09
2022-11-03T18:55:17.025Z,97453.84
2022-11-03T18:57:44.253Z,97452.50
2022-11-03T19:00:22.828Z,97452.75
2022-11-03T19:02:50.435Z,97453.00
2022-11-03T19:05:18.717Z,97447.63
2022-11-03T19:07:48.137Z,97446.00
2022-11-03T19:10:19.387Z,97447.38
2022-11-03T19:12:46.717Z,97454.63
2022-11-03T19:15:24.807Z,97460.78
2022-11-03T19:17:54.816Z,97454.91
2022-11-03T19:20:21.693Z,97450.88
2022-11-03T19:22:48.068Z,97439.56
2022-11-03T19:25:15.391Z,97448.72
2022-11-03T19:27:45.713Z,97441.50
2022-11-03T19:30:16.117Z,97448.22
2022-11-03T19:32:46.993Z,97447.38
2022-11-03T19:35:23.882Z,97448.75
2022-11-03T19:37:58.478Z,97445.00
2022-11-03T19:40:24.965Z,97444.44
2022-11-03T19:42:51.511Z,97429.66
2022-11-03T19:45:20.462Z,97435.03
2022-11-03T19:50:46.595Z,97472.94
2022-11-03T19:53:19.028Z,97488.53
2022-11-03T19:55:45.634Z,97522.44
2022-11-03T19:58:30.169Z,97597.25
2022-11-03T20:00:57.103Z,97581.13
2022-11-03T20:03:24.942Z,97598.31
2022-11-03T20:05:54.690Z,97605.03
2022-11-03T20:08:23.669Z,97611.50
2022-11-03T20:10:50.394Z,97617.13
2022-11-03T20:13:20.372Z,97615.25
2022-11-03T20:15:46.855Z,97617.13
2022-11-03T20:18:14.219Z,97629.00
2022-11-03T20:20:42.829Z,97618.78
2022-11-03T20:23:19.847Z,97604.25
2022-11-03T20:25:46.565Z,97606.41
2022-11-03T20:28:28.343Z,97599.13
2022-11-03T20:31:03.603Z,97608.03
2022-11-03T20:33:30.402Z,97625.53
2022-11-03T20:35:57.363Z,97633.84
2022-11-03T20:38:25.302Z,97646.22
2022-11-03T20:40:58.539Z,97647.81
2022-11-03T20:43:29.104Z,97643.00
2022-11-03T20:45:56.148Z,97636.50
2022-11-03T20:48:23.313Z,97632.78
2022-11-03T20:50:50.695Z,97637.09
2022-11-03T20:53:19.396Z,97680.13
2022-11-03T20:55:46.166Z,97709.72
2022-11-03T20:58:14.877Z,97722.66
2022-11-03T21:00:42.537Z,97733.97
2022-11-03T21:06:16.589Z,97738.81
2022-11-03T21:08:44.655Z,97735.56
2022-11-03T21:11:23.353Z,97732.88
2022-11-03T21:13:55.937Z,97729.09
2022-11-03T21:16:42.223Z,97735.84
2022-11-03T21:19:41.663Z,97747.94
2022-11-03T21:22:45.958Z,97764.63
2022-11-03T21:25:06.438Z,97792.63
2022-11-03T21:27:33.825Z,97790.19
2022-11-03T21:30:01.137Z,97790.19
2022-11-03T21:32:27.882Z,97794.78
2022-11-03T21:34:54.343Z,97792.63
2022-11-03T21:37:20.860Z,97776.47
2022-11-03T21:39:47.599Z,97777.81
2022-11-03T21:42:33.970Z,97789.38
2022-11-03T21:45:00.508Z,97799.88
2022-11-03T21:47:27.268Z,97805.53
2022-11-03T21:49:53.834Z,97811.44
2022-11-03T21:52:34.582Z,97798.53
2022-11-03T21:55:02.910Z,97816.03
2022-11-03T21:57:29.728Z,97824.88
2022-11-03T21:59:59.289Z,97822.22
2022-11-03T22:02:27.202Z,97812.50
2022-11-03T22:04:56.925Z,97825.97
2022-11-03T22:07:23.569Z,97833.50
2022-11-03T22:09:49.960Z,97828.66
2022-11-03T22:12:16.387Z,97826.50
2022-11-03T22:15:01.247Z,97828.66
2022-11-03T22:17:27.857Z,97820.31
2022-11-03T22:20:13.015Z,97821.66
2022-11-03T22:22:57.746Z,97802.03
2022-11-03T22:25:42.587Z,97804.16
2022-11-03T22:28:14.089Z,97836.16
2022-11-03T22:30:59.858Z,97831.59
2022-11-03T22:33:26.746Z,97816.81
2022-11-03T22:36:20.222Z,97829.19
2022-11-03T22:39:06.522Z,97826.22
2022-11-03T22:41:51.347Z,97823.28
2022-11-03T22:44:36.139Z,97816.81
2022-11-03T22:47:03.047Z,97812.75
2022-11-03T22:49:29.851Z,97809.25
2022-11-03T22:51:56.249Z,97820.31
2022-11-03T22:54:22.693Z,97810.38
2022-11-03T22:56:49.089Z,97801.22
2022-11-03T22:59:15.470Z,97799.59
2022-11-03T23:01:42.007Z,97806.03
2022-11-03T23:04:08.579Z,97801.22
2022-11-03T23:06:38.721Z,97798.50
2022-11-03T23:09:05.463Z,97809.00
2022-11-03T23:11:32.563Z,97815.19
2022-11-03T23:14:04.443Z,97812.50
2022-11-03T23:16:34.235Z,97821.13
2022-11-03T23:19:19.385Z,97832.13
2022-11-03T23:21:48.102Z,97840.47
2022-11-03T23:24:33.712Z,97850.97
2022-11-03T23:27:00.663Z,97849.84
2022-11-03T23:29:28.090Z,97848.53
2022-11-03T23:31:55.075Z,97860.09
2022-11-03T23:34:21.954Z,97852.03
2022-11-03T23:36:48.460Z,97860.38
2022-11-03T23:39:16.832Z,97856.63
2022-11-03T23:41:44.225Z,97852.84
2022-11-03T23:44:15.316Z,97855.28
2022-11-03T23:47:01.635Z,97866.84
2022-11-03T23:49:28.650Z,97860.91
2022-11-03T23:51:55.059Z,97867.59
2022-11-03T23:54:21.524Z,97873.47
2022-11-03T23:57:06.902Z,97874.16
2022-11-03T23:59:34.212Z,97880.03
